Time;durP1;ratioP1;P1;durP2;ratioP2;P2;SDS_P1;SDS_P2;PMS_P1;PMS_P2;Temp;Humidity;BMP_temperature;BMP_pressure;BME280_temperature;BME280_humidity;BME280_pressure;Samples;Min_cycle;Max_cycle;Signal;HPM_P1;HPM_P2
2022/11/24 00:00:32;;;;;;;68.50;32.63;;;;;;;-141.97;100.00;47968.88;4995184;28;20167;-84
2022/11/24 00:02:59;;;;;;;71.77;33.43;;;;;;;-141.97;100.00;47757.41;4979182;28;20258;-83
2022/11/24 00:05:24;;;;;;;70.87;33.23;;;;;;;-141.97;100.00;47782.41;4995456;28;20160;-84
2022/11/24 00:07:50;;;;;;;70.83;33.27;;;;;;;-141.97;100.00;47757.41;4995404;28;20195;-84
2022/11/24 00:10:15;;;;;;;70.33;34.10;;;;;;;-141.97;100.00;47784.34;4977794;28;20634;-81
2022/11/24 00:12:41;;;;;;;66.57;32.57;;;;;;;-141.97;100.00;47809.31;4994931;28;20739;-83
2022/11/24 00:15:06;;;;;;;69.37;33.43;;;;;;;-141.97;100.00;47895.81;4992955;28;20616;-85
2022/11/24 00:17:31;;;;;;;68.20;34.23;;;;;;;-141.97;100.00;47911.19;4993069;28;20628;-83
2022/11/24 00:19:57;;;;;;;68.03;33.10;;;;;;;-141.97;100.00;47957.34;4992928;28;20763;-83
2022/11/24 00:22:22;;;;;;;66.23;33.90;;;;;;;-141.97;100.00;47876.59;4992950;28;20178;-84
2022/11/24 00:24:48;;;;;;;67.30;34.97;;;;;;;-141.97;100.00;47807.41;4975810;28;20646;-83
2022/11/24 00:27:13;;;;;;;70.97;35.50;;;;;;;-141.97;100.00;47830.47;4994351;28;20163;-83
2022/11/24 00:29:38;;;;;;;79.43;35.70;;;;;;;-141.97;100.00;47845.84;4992585;28;20548;-83
2022/11/24 00:32:05;;;;;;;72.83;33.80;;;;;;;-141.97;100.00;47859.28;4975421;28;20190;-83
2022/11/24 00:34:32;;;;;;;90.10;40.50;;;;;;;-141.97;100.00;47836.22;4994434;28;20152;-84
2022/11/24 00:36:57;;;;;;;78.53;36.93;;;;;;;-141.97;100.00;47832.38;4992545;28;20159;-84
2022/11/24 00:39:22;;;;;;;73.40;33.90;;;;;;;-141.97;100.00;47849.69;4975084;28;20950;-84
2022/11/24 00:41:48;;;;;;;74.77;35.60;;;;;;;-141.97;100.00;47922.72;4992578;28;20171;-84
2022/11/24 00:44:13;;;;;;;70.30;34.17;;;;;;;-141.97;100.00;47811.25;4992354;28;20176;-84
2022/11/24 00:46:39;;;;;;;75.97;35.67;;;;;;;-141.97;100.00;47751.66;4992127;28;20603;-84
2022/11/24 00:49:05;;;;;;;76.83;36.10;;;;;;;-141.97;100.00;47736.28;4992269;28;20250;-84
2022/11/24 00:51:30;;;;;;;83.40;37.60;;;;;;;-141.97;100.00;47838.16;4992221;28;20163;-84
2022/11/24 00:53:57;;;;;;;81.70;38.23;;;;;;;-141.97;100.00;47861.22;4974902;28;20678;-84
2022/11/24 00:56:24;;;;;;;77.63;37.03;;;;;;;-141.97;100.00;47842.00;4992626;28;20199;-84
2022/11/24 00:58:49;;;;;;;93.90;33.87;;;;;;;-141.97;100.00;47926.56;4994039;28;20247;-83
2022/11/24 01:01:21;;;;;;;73.37;33.20;;;;;;;-141.97;100.00;47845.84;4997604;28;20612;-84
2022/11/24 01:03:47;;;;;;;93.63;33.17;;;;;;;-141.97;100.00;47788.19;4992186;28;20254;-84
2022/11/24 01:06:17;;;;;;;153.97;33.60;;;;;;;-141.97;100.00;47811.25;4992173;28;20171;-84
2022/11/24 01:08:43;;;;;;;98.33;31.80;;;;;;;-141.97;100.00;47847.75;4992148;28;20211;-84
2022/11/24 01:11:21;;;;;;;95.80;32.33;;;;;;;-141.97;100.00;47826.63;4991859;28;20164;-84
2022/11/24 01:13:50;;;;;;;89.10;31.23;;;;;;;-141.97;100.00;47890.06;4992111;28;20190;-84
2022/11/24 01:16:17;;;;;;;67.63;31.00;;;;;;;-141.97;100.00;47792.03;4992233;28;20410;-84
2022/11/24 01:18:43;;;;;;;58.07;29.90;;;;;;;-141.97;100.00;47818.94;4991929;28;20406;-84
2022/11/24 01:21:08;;;;;;;66.73;31.37;;;;;;;-141.97;100.00;47840.06;4991863;28;20407;-84
2022/11/24 01:23:34;;;;;;;71.27;29.47;;;;;;;-141.97;100.00;47822.78;4992469;28;20171;-84
2022/11/24 01:26:02;;;;;;;72.97;30.47;;;;;;;-141.97;100.00;47680.53;5000306;28;20560;-84
2022/11/24 01:28:27;;;;;;;64.63;30.70;;;;;;;-141.97;100.00;47768.94;4978284;28;20194;-85
2022/11/24 01:31:00;;;;;;;65.03;32.30;;;;;;;-141.97;100.00;47822.78;4992271;28;20410;-84
2022/11/24 01:33:26;;;;;;;82.10;31.77;;;;;;;-141.97;100.00;47849.69;4992313;28;20647;-85
2022/11/24 01:35:51;;;;;;;72.13;33.40;;;;;;;-141.97;100.00;47807.41;4991709;28;20442;-84
2022/11/24 01:38:17;;;;;;;73.20;33.40;;;;;;;-141.97;100.00;47853.53;4991795;28;20238;-85
2022/11/24 01:40:43;;;;;;;65.60;31.50;;;;;;;-141.97;100.00;47863.13;4991906;28;20189;-83
2022/11/24 01:43:20;;;;;;;68.97;32.87;;;;;;;-141.97;100.00;47926.56;4991859;28;20167;-85
2022/11/24 01:45:46;;;;;;;59.73;30.60;;;;;;;-141.97;100.00;47901.59;4991644;28;20703;-84
2022/11/24 01:48:36;;;;;;;67.13;31.50;;;;;;;-141.97;100.00;47849.69;4974222;28;20534;-84
2022/11/24 01:51:16;;;;;;;66.13;30.23;;;;;;;-141.97;100.00;47840.06;4993726;28;20421;-85
2022/11/24 01:53:44;;;;;;;62.87;31.43;;;;;;;-141.97;100.00;47842.00;4995611;28;20402;-84
2022/11/24 01:56:11;;;;;;;61.63;30.87;;;;;;;-141.97;100.00;47799.72;4977861;28;20160;-84
2022/11/24 01:58:39;;;;;;;65.00;31.07;;;;;;;-141.97;100.00;47868.91;4995345;28;20608;-84
2022/11/24 02:01:05;;;;;;;61.07;29.37;;;;;;;-141.97;100.00;47845.84;4995350;28;20407;-84
2022/11/24 02:03:35;;;;;;;61.03;30.03;;;;;;;-141.97;100.00;47805.47;4995685;28;20855;-84
2022/11/24 02:06:02;;;;;;;62.67;30.27;;;;;;;-141.97;100.00;47799.72;4995548;28;20203;-87
2022/11/24 02:09:00;;;;;;;60.60;29.80;;;;;;;-141.97;100.00;47784.34;4978164;28;20294;-84
2022/11/24 02:11:29;;;;;;;60.73;30.57;;;;;;;-141.97;100.00;47988.09;4935339;29;20889;-84
2022/11/24 02:13:56;;;;;;;72.23;31.03;;;;;;;-141.97;100.00;47884.28;4935337;29;20457;-84
2022/11/24 02:16:22;;;;;;;74.30;32.63;;;;;;;-141.97;100.00;47853.53;4935710;29;20436;-83
2022/11/24 02:18:47;;;;;;;73.33;32.73;;;;;;;-141.97;100.00;47803.56;4935437;29;20170;-84
2022/11/24 02:21:15;;;;;;;59.20;29.60;;;;;;;-141.97;100.00;47884.28;4935509;29;20177;-84
2022/11/24 02:23:43;;;;;;;55.67;27.43;;;;;;;-141.97;100.00;47868.91;4935441;29;20170;-84
2022/11/24 02:26:11;;;;;;;55.70;27.70;;;;;;;-141.97;100.00;47849.69;4934852;29;20965;-84
2022/11/24 02:28:37;;;;;;;55.00;28.10;;;;;;;-141.97;100.00;47870.81;4934939;29;21013;-85
2022/11/24 02:31:04;;;;;;;56.00;27.10;;;;;;;-141.97;100.00;47815.09;4935205;29;20520;-85
2022/11/24 02:33:30;;;;;;;51.13;26.13;;;;;;;-141.97;100.00;47807.41;4935137;29;20701;-84
2022/11/24 02:35:55;;;;;;;56.13;27.40;;;;;;;-141.97;100.00;47868.91;4934948;29;20527;-85
2022/11/24 02:38:32;;;;;;;65.87;30.50;;;;;;;-141.97;100.00;47807.41;4934961;29;20226;-85
2022/11/24 02:41:01;;;;;;;67.53;31.00;;;;;;;-141.97;100.00;47842.00;4934597;29;20197;-84
2022/11/24 02:43:29;;;;;;;65.90;30.50;;;;;;;-141.97;100.00;47813.16;4934851;29;20477;-84
2022/11/24 02:45:55;;;;;;;62.10;29.70;;;;;;;-141.97;100.00;47830.47;4934559;29;20973;-84
2022/11/24 02:48:20;;;;;;;62.97;28.73;;;;;;;-141.97;100.00;47882.38;4958421;28;20558;-83
2022/11/24 02:50:45;;;;;;;54.97;27.70;;;;;;;-141.97;100.00;47784.34;4957513;28;20727;-83
2022/11/24 02:53:11;;;;;;;53.70;27.13;;;;;;;-141.97;100.00;47818.94;4957924;28;20223;-83
2022/11/24 02:55:36;;;;;;;50.13;25.83;;;;;;;-141.97;100.00;47861.22;4974981;28;20231;-84
2022/11/24 02:58:02;;;;;;;48.27;24.27;;;;;;;-141.97;100.00;47915.03;4975208;28;20243;-84
2022/11/24 03:00:27;;;;;;;50.83;25.00;;;;;;;-141.97;100.00;47911.19;4975116;28;20247;-83
2022/11/24 03:02:53;;;;;;;48.97;24.27;;;;;;;-141.97;100.00;47772.78;4957465;28;20241;-83
2022/11/24 03:05:18;;;;;;;47.87;24.20;;;;;;;-141.97;100.00;47826.63;4975245;28;20164;-83
2022/11/24 03:07:43;;;;;;;48.77;23.87;;;;;;;-141.97;100.00;47874.69;4974753;28;20246;-84
2022/11/24 03:10:09;;;;;;;49.13;24.20;;;;;;;-141.97;100.00;47849.69;4974742;28;20259;-84
2022/11/24 03:12:34;;;;;;;50.17;24.27;;;;;;;-141.97;100.00;47830.47;4975113;28;20172;-82
2022/11/24 03:15:02;;;;;;;47.53;23.77;;;;;;;-141.97;100.00;47911.19;4973421;28;20168;-83
2022/11/24 03:17:27;;;;;;;48.40;23.33;;;;;;;-141.97;100.00;47886.22;4974832;28;20175;-84
2022/11/24 03:19:52;;;;;;;47.83;23.37;;;;;;;-141.97;100.00;47870.81;4974624;28;20883;-85
2022/11/24 03:22:18;;;;;;;45.60;23.03;;;;;;;-141.97;100.00;47832.38;4975001;28;20179;-83
2022/11/24 03:24:43;;;;;;;47.57;23.43;;;;;;;-141.97;100.00;47849.69;4974686;28;20243;-83
2022/11/24 03:27:08;;;;;;;47.83;23.97;;;;;;;-141.97;100.00;47843.91;4974739;28;20625;-84
2022/11/24 03:29:34;;;;;;;46.50;22.23;;;;;;;-141.97;100.00;47811.25;4975299;28;20203;-84
2022/11/24 03:31:59;;;;;;;41.63;22.13;;;;;;;-141.97;100.00;47855.44;4975852;28;20638;-84
2022/11/24 03:34:25;;;;;;;46.20;23.33;;;;;;;-141.97;100.00;47853.53;4973826;28;20172;-84
2022/11/24 03:36:50;;;;;;;47.33;23.23;;;;;;;-141.97;100.00;47772.78;4975024;28;20198;-84
2022/11/24 03:39:15;;;;;;;42.33;22.40;;;;;;;-141.97;100.00;47845.84;4974454;28;20566;-84
2022/11/24 03:41:41;;;;;;;43.17;21.60;;;;;;;-141.97;100.00;47851.59;4974284;28;20168;-84
2022/11/24 03:44:06;;;;;;;42.73;22.47;;;;;;;-141.97;100.00;47765.09;4975047;28;20547;-83
2022/11/24 03:46:32;;;;;;;42.77;21.33;;;;;;;-141.97;100.00;47807.41;4989160;28;20219;-84
2022/11/24 03:48:57;;;;;;;44.70;22.00;;;;;;;-141.97;100.00;47726.66;4997171;28;20204;-83
2022/11/24 03:51:23;;;;;;;42.27;20.47;;;;;;;-141.97;100.00;47884.28;5000929;28;20251;-84
2022/11/24 03:53:48;;;;;;;38.27;20.37;;;;;;;-141.97;100.00;47709.38;4996779;28;20187;-84
2022/11/24 03:56:13;;;;;;;44.93;22.63;;;;;;;-141.97;100.00;47857.38;4993608;28;20238;-84
2022/11/24 03:58:39;;;;;;;42.30;21.37;;;;;;;-141.97;100.00;47788.19;4993614;28;20167;-83
2022/11/24 04:01:04;;;;;;;40.23;21.13;;;;;;;-141.97;100.00;47851.59;4993595;28;20175;-84
2022/11/24 04:03:30;;;;;;;39.80;20.97;;;;;;;-141.97;100.00;47818.94;4993408;28;20253;-85
2022/11/24 04:05:55;;;;;;;41.63;20.80;;;;;;;-141.97;100.00;47755.50;4976184;28;20178;-84
2022/11/24 04:08:21;;;;;;;39.40;20.70;;;;;;;-141.97;100.00;47895.81;4993251;28;20195;-84
2022/11/24 04:10:52;;;;;;;37.90;20.67;;;;;;;-141.97;100.00;47747.81;4993015;28;20171;-83
2022/11/24 04:13:20;;;;;;;39.97;20.17;;;;;;;-141.97;100.00;47836.22;4996964;28;20168;-83
2022/11/24 04:15:46;;;;;;;37.23;19.50;;;;;;;-141.97;100.00;47772.78;4993878;28;20465;-83
2022/11/24 04:18:12;;;;;;;49.63;24.97;;;;;;;-141.97;100.00;47870.81;4994245;28;20398;-85
2022/11/24 04:20:38;;;;;;;47.07;23.87;;;;;;;-141.97;100.00;47795.88;4976754;28;20175;-83
2022/11/24 04:23:04;;;;;;;53.13;25.23;;;;;;;-141.97;100.00;47820.84;4995356;28;20407;-83
2022/11/24 04:25:30;;;;;;;48.93;24.07;;;;;;;-141.97;100.00;47763.19;4993410;28;20417;-83
2022/11/24 04:27:55;;;;;;;46.87;23.00;;;;;;;-141.97;100.00;47842.00;4993368;28;20195;-84
2022/11/24 04:30:22;;;;;;;40.50;20.23;;;;;;;-141.97;100.00;47830.47;4993663;28;20617;-83
2022/11/24 04:32:48;;;;;;;43.37;21.47;;;;;;;-141.97;100.00;47755.50;4993050;28;20616;-83
2022/11/24 04:35:14;;;;;;;46.90;20.63;;;;;;;-141.97;100.00;47940.03;4992755;28;20501;-85
2022/11/24 04:37:39;;;;;;;43.10;21.20;;;;;;;-141.97;100.00;47767.03;4992764;28;20545;-83
2022/11/24 04:40:06;;;;;;;43.13;21.33;;;;;;;-141.97;100.00;47872.75;4992366;28;20257;-84
2022/11/24 04:42:32;;;;;;;40.33;19.27;;;;;;;-141.97;100.00;47726.66;4992550;28;20172;-83
2022/11/24 04:44:57;;;;;;;35.00;17.03;;;;;;;-141.97;100.00;47874.69;4974960;28;20437;-83
2022/11/24 04:47:25;;;;;;;39.43;18.27;;;;;;;-141.97;100.00;47815.09;4992495;28;20167;-84
2022/11/24 04:49:51;;;;;;;36.70;18.73;;;;;;;-141.97;100.00;47872.75;4974043;28;20163;-85
2022/11/24 04:52:18;;;;;;;59.60;26.93;;;;;;;-141.97;100.00;47822.78;4985975;28;21002;-84
2022/11/24 04:54:44;;;;;;;55.40;26.60;;;;;;;-141.97;100.00;47957.34;4993212;28;20933;-84
2022/11/24 04:57:21;;;;;;;51.47;23.77;;;;;;;-141.97;100.00;47845.84;4992309;28;20414;-84
2022/11/24 04:59:48;;;;;;;33.90;17.17;;;;;;;-141.97;100.00;47815.09;5000666;28;20498;-85
2022/11/24 05:02:13;;;;;;;32.33;17.27;;;;;;;-141.97;100.00;47828.53;4995339;28;20450;-84
2022/11/24 05:04:39;;;;;;;34.47;16.90;;;;;;;-141.97;100.00;47765.09;4993552;28;20997;-84
2022/11/24 05:07:05;;;;;;;45.57;23.17;;;;;;;-141.97;100.00;47780.47;4976090;28;20175;-84
2022/11/24 05:09:30;;;;;;;105.23;44.37;;;;;;;-141.97;100.00;47776.63;4993596;28;20195;-85
2022/11/24 05:11:56;;;;;;;220.30;93.10;;;;;;;-141.97;100.00;47859.28;4992763;28;20179;-84
2022/11/24 05:14:21;;;;;;;207.50;94.80;;;;;;;-141.97;100.00;47742.03;4994285;28;20179;-83
2022/11/24 05:16:47;;;;;;;198.10;88.57;;;;;;;-141.97;100.00;47832.38;4995954;28;20643;-84
2022/11/24 05:19:13;;;;;;;219.27;109.97;;;;;;;-141.97;100.00;47842.00;4992604;28;20186;-85
2022/11/24 05:21:39;;;;;;;215.03;102.93;;;;;;;-141.97;100.00;47849.69;4990323;28;20486;-84
2022/11/24 05:24:04;;;;;;;110.90;51.20;;;;;;;-141.97;100.00;47940.03;4994098;28;20206;-85
2022/11/24 05:26:30;;;;;;;184.50;59.47;;;;;;;-141.97;100.00;47792.03;4992900;28;20184;-85
2022/11/24 05:28:55;;;;;;;125.17;44.50;;;;;;;-141.97;100.00;47718.97;4980789;28;20238;-82
2022/11/24 05:31:21;;;;;;;148.63;50.87;;;;;;;-141.97;100.00;47811.25;4993190;28;20183;-83
2022/11/24 05:33:47;;;;;;;107.10;44.87;;;;;;;-141.97;100.00;47793.94;4991621;28;20187;-82
2022/11/24 05:36:51;;;;;;;87.90;40.53;;;;;;;-141.97;100.00;47836.22;4992378;28;20176;-84
2022/11/24 05:38:57;;;;;;;79.30;35.93;;;;;;;-141.97;100.00;47832.38;4992702;28;20217;-84
2022/11/24 05:41:23;;;;;;;65.07;33.93;;;;;;;-141.97;100.00;47793.94;4994385;28;20411;-83
2022/11/24 05:43:48;;;;;;;64.43;31.83;;;;;;;-141.97;100.00;47795.88;4996390;28;20642;-83
2022/11/24 05:46:14;;;;;;;93.67;41.33;;;;;;;-141.97;100.00;47807.41;4982810;28;20230;-82
2022/11/24 05:48:39;;;;;;;55.27;28.43;;;;;;;-141.97;100.00;47926.56;4973272;28;20635;-84
2022/11/24 05:51:05;;;;;;;37.63;19.40;;;;;;;-141.97;100.00;47861.22;4972713;28;20270;-84
2022/11/24 05:53:30;;;;;;;39.50;20.70;;;;;;;-141.97;100.00;47830.47;4973900;28;20167;-84
2022/11/24 05:55:55;;;;;;;40.47;21.73;;;;;;;-141.97;100.00;47838.16;4972961;28;20167;-83
2022/11/24 05:58:21;;;;;;;62.83;33.53;;;;;;;-141.97;100.00;47807.41;4955632;28;20727;-84
2022/11/24 06:00:46;;;;;;;46.17;24.00;;;;;;;-141.97;100.00;47863.13;4955308;28;20176;-84
2022/11/24 06:03:12;;;;;;;54.67;29.87;;;;;;;-141.97;100.00;47855.44;4972721;28;20581;-83
2022/11/24 06:05:38;;;;;;;43.30;24.60;;;;;;;-141.97;100.00;47792.03;4955291;28;20604;-83
2022/11/24 06:08:03;;;;;;;45.83;24.10;;;;;;;-141.97;100.00;47772.78;4956832;28;20286;-83
2022/11/24 06:10:29;;;;;;;55.20;32.30;;;;;;;-141.97;100.00;47849.69;4973606;28;20164;-84
2022/11/24 06:12:55;;;;;;;42.30;21.70;;;;;;;-141.97;100.00;47851.59;4975323;28;20219;-82
2022/11/24 06:15:21;;;;;;;38.87;20.07;;;;;;;-141.97;100.00;47838.16;4984723;28;20183;-83
2022/11/24 06:17:54;;;;;;;39.73;19.60;;;;;;;-141.97;100.00;47786.25;4997406;28;20191;-82
2022/11/24 06:20:20;;;;;;;34.83;18.10;;;;;;;-141.97;99.76;47926.56;4969366;28;20694;-85
2022/11/24 06:22:47;;;;;;;37.40;17.67;;;;;;;-141.97;99.27;47824.69;4978236;28;20438;-82
2022/11/24 06:25:12;;;;;;;99.13;43.17;;;;;;;-141.97;98.63;47897.75;4977672;28;20448;-82
2022/11/24 06:27:38;;;;;;;75.20;35.27;;;;;;;-141.97;97.80;47868.91;4958203;28;20458;-82
2022/11/24 06:30:04;;;;;;;46.80;23.13;;;;;;;-141.97;96.84;47824.69;4972474;28;20167;-83
2022/11/24 06:32:29;;;;;;;52.03;23.80;;;;;;;-141.97;96.42;47853.53;4972374;28;20172;-83
2022/11/24 06:34:54;;;;;;;54.93;25.97;;;;;;;-141.97;94.51;47834.31;4974822;28;20164;-82
2022/11/24 06:37:20;;;;;;;41.37;20.00;;;;;;;-141.97;93.37;47734.34;4975503;28;20168;-85
2022/11/24 06:39:45;;;;;;;40.03;18.90;;;;;;;-141.97;92.16;47822.78;4976291;28;20692;-84
2022/11/24 06:42:11;;;;;;;40.77;18.33;;;;;;;-141.97;91.72;47876.59;4973957;28;20663;-83
2022/11/24 06:44:36;;;;;;;36.03;18.67;;;;;;;-141.97;90.76;47911.19;4981615;28;20195;-87
2022/11/24 06:47:01;;;;;;;28.00;16.80;;;;;;;-141.97;88.55;47847.75;4981772;28;20306;-86
2022/11/24 06:49:27;;;;;;;31.07;15.50;;;;;;;-141.97;87.60;47897.75;4993922;28;20198;-86
2022/11/24 06:51:54;;;;;;;22.73;10.13;;;;;;;-141.97;87.07;47861.22;5015604;28;20232;-85
2022/11/24 06:54:20;;;;;;;18.60;9.93;;;;;;;-141.97;88.44;47690.16;5014659;28;20262;-85
2022/11/24 06:56:46;;;;;;;22.73;12.07;;;;;;;-141.97;85.27;47851.59;5013665;28;20160;-86
2022/11/24 06:59:19;;;;;;;34.17;17.60;;;;;;;-141.97;81.73;47805.47;5012380;28;20173;-86
2022/11/24 07:01:45;;;;;;;65.23;30.97;;;;;;;-141.97;81.55;47853.53;5007967;28;20163;-86
2022/11/24 07:04:11;;;;;;;38.90;20.93;;;;;;;-141.97;81.42;47801.63;5008190;28;20207;-87
2022/11/24 07:06:38;;;;;;;36.33;20.10;;;;;;;-141.97;80.63;47840.06;5008865;28;20218;-86
2022/11/24 07:09:04;;;;;;;21.07;11.43;;;;;;;-141.97;81.63;47780.47;5008934;28;20179;-86
2022/11/24 07:11:29;;;;;;;22.23;12.20;;;;;;;-141.97;82.43;47828.53;5013031;28;20178;-86
2022/11/24 07:13:56;;;;;;;31.20;17.23;;;;;;;-141.97;82.41;47715.13;5016120;28;20159;-87
2022/11/24 07:16:24;;;;;;;30.87;16.40;;;;;;;-141.97;81.49;47824.69;5003627;28;20163;-89
2022/11/24 07:18:51;;;;;;;37.90;19.87;;;;;;;-141.97;81.92;47726.66;4981872;28;20191;-88
2022/11/24 07:21:18;;;;;;;35.57;17.77;;;;;;;-141.97;81.20;47840.06;4980707;28;20181;-88
2022/11/24 07:23:50;;;;;;;38.13;20.03;;;;;;;-141.97;79.95;47918.88;4994184;28;20270;-87
2022/11/24 07:26:16;;;;;;;45.47;23.17;;;;;;;-141.97;79.59;47772.78;4980398;28;20196;-89
2022/11/24 07:28:42;;;;;;;34.40;19.70;;;;;;;-141.97;79.64;47772.78;4959905;28;20295;-88
2022/11/24 07:31:13;;;;;;;32.43;17.30;;;;;;;-141.97;80.91;47792.03;4974997;28;20644;-86
2022/11/24 07:33:38;;;;;;;25.97;15.10;;;;;;;-141.97;81.98;47818.94;4974977;28;20194;-86
2022/11/24 07:36:05;;;;;;;22.10;12.67;;;;;;;-141.97;81.37;47820.84;4976289;28;20231;-86
2022/11/24 07:38:31;;;;;;;23.40;11.67;;;;;;;-141.97;81.80;47801.63;4975531;28;20175;-87
2022/11/24 07:41:07;;;;;;;59.40;32.43;;;;;;;-141.97;82.32;47795.88;4974511;28;20184;-87
2022/11/24 07:43:34;;;;;;;29.20;17.27;;;;;;;-141.97;81.83;47815.09;4955878;29;20621;-87
2022/11/24 07:46:00;;;;;;;26.10;14.00;;;;;;;-141.97;79.56;47807.41;4970568;28;20231;-86
2022/11/24 07:48:26;;;;;;;28.17;15.97;;;;;;;-141.97;77.62;47818.94;4994891;28;20248;-86
2022/11/24 07:50:51;;;;;;;34.73;18.57;;;;;;;-141.97;76.93;47878.53;4977714;28;20170;-84
2022/11/24 07:53:16;;;;;;;35.77;17.00;;;;;;;-141.97;76.25;47818.94;4993975;28;20620;-84
2022/11/24 07:55:42;;;;;;;31.83;16.83;;;;;;;-141.97;77.18;47826.63;4992969;28;20199;-86
2022/11/24 07:58:08;;;;;;;119.63;48.93;;;;;;;-141.97;75.34;47838.16;4993693;28;20230;-84
2022/11/24 08:00:33;;;;;;;145.30;55.30;;;;;;;-141.97;74.58;47713.22;4993922;28;20261;-84
2022/11/24 08:02:59;;;;;;;66.30;29.33;;;;;;;-141.97;74.98;47897.75;4991975;28;20290;-84
2022/11/24 08:05:24;;;;;;;65.50;27.63;;;;;;;-141.97;76.20;47767.03;4950719;28;21323;-85
2022/11/24 08:07:49;;;;;;;32.03;14.57;;;;;;;-141.97;73.17;47847.75;4968785;28;20215;-84
2022/11/24 08:10:15;;;;;;;75.17;31.17;;;;;;;-141.97;72.55;47963.09;4989260;28;20308;-84
2022/11/24 08:12:41;;;;;;;59.70;26.13;;;;;;;-141.97;71.43;47822.78;4992149;28;20187;-85
2022/11/24 08:15:07;;;;;;;31.27;17.10;;;;;;;-141.97;70.70;47726.66;4991252;28;20237;-84
2022/11/24 08:17:33;;;;;;;28.83;15.43;;;;;;;-141.97;69.39;47936.19;4993277;28;20176;-84
2022/11/24 08:19:58;;;;;;;25.23;15.47;;;;;;;-141.97;69.62;47880.44;4969994;28;20183;-87
2022/11/24 08:22:23;;;;;;;36.83;20.23;;;;;;;-141.97;69.02;47753.56;4993322;28;20198;-85
2022/11/24 08:24:50;;;;;;;29.90;16.83;;;;;;;-141.97;67.82;47945.81;4994853;28;20262;-85
2022/11/24 08:27:16;;;;;;;19.90;12.37;;;;;;;-141.97;67.00;47822.78;4997733;28;20281;-85
2022/11/24 08:29:42;;;;;;;31.50;15.97;;;;;;;-141.97;66.70;47793.94;5005479;28;20226;-86
2022/11/24 08:32:10;;;;;;;22.30;12.10;;;;;;;-141.97;66.37;47707.44;5011788;28;20214;-88
2022/11/24 08:34:36;;;;;;;20.47;10.40;;;;;;;-141.97;64.98;47782.41;5011600;28;20198;-88
2022/11/24 08:37:03;;;;;;;21.40;11.10;;;;;;;-141.97;62.23;47713.22;5012523;28;20168;-87
2022/11/24 08:39:28;;;;;;;24.30;13.43;;;;;;;-141.97;61.48;47701.69;4997556;28;20218;-87
2022/11/24 08:41:54;;;;;;;14.93;9.30;;;;;;;-141.97;60.90;47934.25;5005720;28;20187;-85
2022/11/24 08:44:19;;;;;;;15.80;9.30;;;;;;;-141.97;61.16;47788.19;4996094;28;20218;-85
2022/11/24 08:46:45;;;;;;;20.43;12.67;;;;;;;-141.97;60.68;47776.63;4988719;28;20245;-85
2022/11/24 08:49:13;;;;;;;27.87;16.13;;;;;;;-141.97;60.80;47847.75;4973622;28;20202;-85
2022/11/24 08:51:38;;;;;;;28.57;12.83;;;;;;;-141.97;60.87;47742.03;4991377;28;20198;-87
2022/11/24 08:54:04;;;;;;;25.13;13.50;;;;;;;-141.97;60.29;47865.06;4991100;28;20187;-85
2022/11/24 08:56:31;;;;;;;26.80;14.00;;;;;;;-141.97;59.39;47715.13;4991429;28;20245;-86
2022/11/24 08:58:57;;;;;;;19.47;11.17;;;;;;;-141.97;59.55;47799.72;4992507;28;20195;-85
2022/11/24 09:01:23;;;;;;;14.57;9.30;;;;;;;-141.97;58.64;47786.25;4994183;28;20188;-85
2022/11/24 09:03:49;;;;;;;21.23;10.80;;;;;;;-141.97;58.76;47705.53;4993881;28;20176;-84
2022/11/24 09:06:17;;;;;;;17.90;9.00;;;;;;;-141.97;58.29;47765.09;4992334;28;20215;-86
2022/11/24 09:08:42;;;;;;;9.93;5.87;;;;;;;-141.97;59.51;47759.34;4998824;28;20254;-87
2022/11/24 09:11:11;;;;;;;13.20;7.40;;;;;;;-141.97;59.79;47742.03;5016451;28;20183;-85
2022/11/24 09:13:37;;;;;;;18.67;10.77;;;;;;;-141.97;58.78;47703.59;4990168;28;20183;-84
2022/11/24 09:16:15;;;;;;;34.53;17.07;;;;;;;-141.97;58.36;47807.41;4986109;28;20186;-87
2022/11/24 09:18:44;;;;;;;44.43;23.17;;;;;;;-141.97;58.24;47926.56;4999160;28;20179;-84
2022/11/24 09:21:15;;;;;;;41.30;18.23;;;;;;;-141.97;57.78;47726.66;4990740;28;20210;-85
2022/11/24 09:23:42;;;;;;;31.40;13.20;;;;;;;-141.97;57.80;47761.25;4985191;28;20281;-87
2022/11/24 09:26:28;;;;;;;13.50;6.80;;;;;;;-141.97;60.05;47770.88;4988550;28;20183;-86
2022/11/24 09:28:55;;;;;;;28.87;11.77;;;;;;;-141.97;59.57;47790.09;4989418;28;20211;-86
2022/11/24 09:31:30;;;;;;;15.47;8.33;;;;;;;-141.97;59.20;47780.47;4980161;28;20568;-85
2022/11/24 09:33:56;;;;;;;25.73;15.13;;;;;;;-141.97;57.89;47770.88;4994005;28;20212;-85
2022/11/24 09:36:23;;;;;;;17.33;9.67;;;;;;;-141.97;57.17;47799.72;4969216;28;20184;-85
2022/11/24 09:38:48;;;;;;;29.87;15.47;;;;;;;-141.97;56.96;47707.44;4970465;28;20183;-86
2022/11/24 09:41:13;;;;;;;11.30;6.57;;;;;;;-141.97;56.36;47732.44;4969459;28;20195;-85
2022/11/24 09:43:54;;;;;;;10.43;5.37;;;;;;;-141.97;54.38;47790.09;4984680;28;20841;-87
2022/11/24 09:46:44;;;;;;;9.67;5.17;;;;;;;-141.97;54.19;47761.25;4989288;28;20227;-85
2022/11/24 09:49:17;;;;;;;13.20;8.37;;;;;;;-141.97;54.06;47768.94;4991092;28;20206;-84
2022/11/24 09:51:48;;;;;;;80.53;35.63;;;;;;;-141.97;54.44;47780.47;4995408;28;20566;-86
2022/11/24 09:54:21;;;;;;;26.27;12.17;;;;;;;-141.97;55.48;47786.25;4989936;28;20190;-86
2022/11/24 09:56:50;;;;;;;10.80;6.30;;;;;;;-141.97;56.71;47834.31;4989659;28;20217;-88
2022/11/24 09:59:23;;;;;;;10.07;4.30;;;;;;;-141.97;57.14;47834.31;4992558;28;20800;-85
2022/11/24 10:01:50;;;;;;;7.80;4.30;;;;;;;-141.97;57.53;47770.88;4994056;28;20179;-85
2022/11/24 10:04:23;;;;;;;11.60;6.50;;;;;;;-141.97;57.47;47768.94;4989693;28;20623;-85
2022/11/24 10:06:58;;;;;;;6.73;3.97;;;;;;;-141.97;56.33;47768.94;4977828;28;20227;-85
2022/11/24 10:09:33;;;;;;;8.97;3.57;;;;;;;-141.97;56.33;47768.94;4973198;28;20211;-85
2022/11/24 10:12:10;;;;;;;9.47;4.57;;;;;;;-141.97;56.42;47795.88;4991666;28;20183;-87
2022/11/24 10:15:03;;;;;;;8.47;4.50;;;;;;;-141.97;55.99;47749.72;4993396;28;20278;-85
2022/11/24 10:17:37;;;;;;;8.67;4.20;;;;;;;-141.97;57.34;47772.78;4913336;29;20202;-85
2022/11/24 10:20:50;;;;;;;11.90;6.97;;;;;;;-141.97;57.12;47778.56;4907608;29;20200;-84
2022/11/24 10:23:42;;;;;;;12.97;4.97;;;;;;;-141.97;56.90;47790.09;4876548;29;20581;-85
2022/11/24 10:26:34;;;;;;;7.00;3.30;;;;;;;-141.97;56.03;47768.94;4875915;29;20199;-86
2022/11/24 10:29:09;;;;;;;7.53;3.20;;;;;;;-141.97;54.73;47738.19;4875924;29;20223;-86
2022/11/24 10:31:39;;;;;;;6.77;3.70;;;;;;;-141.97;53.47;47893.91;4875786;29;20277;-86
2022/11/24 10:34:16;;;;;;;9.90;6.10;;;;;;;-141.97;52.27;47753.56;4876369;29;20301;-85
2022/11/24 10:37:02;;;;;;;5.93;2.97;;;;;;;-141.97;51.04;47765.09;4875477;29;20221;-85
2022/11/24 10:39:38;;;;;;;4.33;3.10;;;;;;;-141.97;51.71;47726.66;4875779;29;20187;-83
2022/11/24 10:42:16;;;;;;;5.67;2.93;;;;;;;-141.97;51.78;47768.94;4875885;29;20274;-84
2022/11/24 10:44:42;;;;;;;6.23;2.90;;;;;;;-141.97;51.82;47757.41;4875782;29;20191;-85
2022/11/24 10:47:18;;;;;;;7.03;2.97;;;;;;;-141.97;52.14;47757.41;4874922;29;20238;-84
2022/11/24 10:50:11;;;;;;;5.43;2.70;;;;;;;-141.97;52.21;47765.09;4875454;29;20214;-84
2022/11/24 10:52:41;;;;;;;5.50;3.10;;;;;;;-141.97;52.65;47792.03;4875468;29;20191;-85
2022/11/24 10:55:08;;;;;;;9.27;4.60;;;;;;;-141.97;52.37;47678.63;4945972;29;20339;-86
2022/11/24 10:57:36;;;;;;;7.17;4.30;;;;;;;-141.97;51.97;47730.50;4952874;28;20195;-85
2022/11/24 11:00:16;;;;;;;4.53;3.07;;;;;;;-141.97;51.94;47776.63;4972645;28;20609;-84
2022/11/24 11:02:41;;;;;;;12.70;4.87;;;;;;;-141.97;51.69;47795.88;4972991;28;20191;-85